createdAt,value
2019-05-16T00:00:14.309Z,18.87
2019-05-16T00:02:47.996Z,18.84
2019-05-16T00:05:19.196Z,18.87
2019-05-16T00:07:50.707Z,18.83
2019-05-16T00:10:22.355Z,18.80
2019-05-16T00:12:54.025Z,18.78
2019-05-16T00:15:25.543Z,18.69
2019-05-16T00:17:58.383Z,18.70
2019-05-16T00:20:30.046Z,18.71
2019-05-16T00:23:01.559Z,18.69
2019-05-16T00:25:33.262Z,18.69
2019-05-16T00:28:04.779Z,18.72
2019-05-16T00:30:38.940Z,18.69
2019-05-16T00:33:09.495Z,18.66
2019-05-16T00:35:41.040Z,18.64
2019-05-16T00:38:12.468Z,18.59
2019-05-16T00:40:44.044Z,18.58
2019-05-16T00:43:15.393Z,18.57
2019-05-16T00:45:48.647Z,18.54
2019-05-16T00:48:20.074Z,18.56
2019-05-16T00:50:51.427Z,18.59
2019-05-16T00:53:22.881Z,18.53
2019-05-16T00:55:54.966Z,18.55
2019-05-16T00:58:28.428Z,18.47
2019-05-16T01:00:59.827Z,18.46
2019-05-16T01:03:31.167Z,18.40
2019-05-16T01:06:15.438Z,18.33
2019-05-16T01:08:35.713Z,18.31
2019-05-16T01:11:07.944Z,18.25
2019-05-16T01:13:39.558Z,18.31
2019-05-16T01:16:10.905Z,18.17
2019-05-16T01:18:42.515Z,18.17
2019-05-16T01:21:13.864Z,18.13
2019-05-16T01:23:45.244Z,18.10
2019-05-16T01:26:18.546Z,18.12
2019-05-16T01:28:49.760Z,18.11
2019-05-16T01:31:21.094Z,18.07
2019-05-16T01:33:55.292Z,18.09
2019-05-16T01:36:36.655Z,18.03
2019-05-16T01:39:00.073Z,17.91
2019-05-16T01:41:31.538Z,17.93
2019-05-16T01:44:03.377Z,17.95
2019-05-16T01:46:34.733Z,17.95
2019-05-16T01:49:08.175Z,17.93
2019-05-16T01:51:39.379Z,17.93
2019-05-16T01:54:10.845Z,17.94
2019-05-16T01:56:43.369Z,17.91
2019-05-16T01:59:14.948Z,17.89
2019-05-16T02:01:48.272Z,17.90
2019-05-16T02:04:19.736Z,17.92
2019-05-16T02:06:54.684Z,17.91
2019-05-16T02:09:24.764Z,17.94
2019-05-16T02:11:58.751Z,17.92
2019-05-16T02:14:29.557Z,17.88
2019-05-16T02:17:01.014Z,17.92
2019-05-16T02:19:32.627Z,17.88
2019-05-16T02:22:04.117Z,17.85
2019-05-16T02:24:35.463Z,17.90
2019-05-16T02:27:09.389Z,17.88
2019-05-16T02:29:40.271Z,17.79
2019-05-16T02:32:11.828Z,17.73
2019-05-16T02:34:43.290Z,17.77
2019-05-16T02:37:24.469Z,17.80
2019-05-16T02:39:51.557Z,17.80
2019-05-16T02:42:21.634Z,17.67
2019-05-16T02:44:52.957Z,17.62
2019-05-16T02:47:24.336Z,17.68
2019-05-16T02:49:55.607Z,17.69
2019-05-16T02:52:26.895Z,17.68
2019-05-16T02:55:00.810Z,17.65
2019-05-16T02:57:31.892Z,17.61
2019-05-16T03:00:03.737Z,17.60
2019-05-16T03:02:35.187Z,17.64
2019-05-16T03:05:11.527Z,17.59
2019-05-16T03:07:46.936Z,17.71
2019-05-16T03:10:15.484Z,17.67
2019-05-16T03:12:51.369Z,17.71
2019-05-16T03:15:22.900Z,17.71
2019-05-16T03:18:00.353Z,17.79
2019-05-16T03:20:33.805Z,17.81
2019-05-16T03:23:05.241Z,17.76
2019-05-16T03:25:36.537Z,17.78
2019-05-16T03:28:10.900Z,17.86
2019-05-16T03:30:44.669Z,17.90
2019-05-16T03:33:22.481Z,17.89
2019-05-16T03:35:47.248Z,17.92
2019-05-16T03:38:21.338Z,18.06
2019-05-16T03:40:51.779Z,17.98
2019-05-16T03:43:23.057Z,17.91
2019-05-16T03:45:54.394Z,18.04
2019-05-16T03:48:25.787Z,18.11
2019-05-16T03:50:57.077Z,18.08
2019-05-16T03:53:31.472Z,18.02
2019-05-16T03:56:02.014Z,18.13
2019-05-16T03:58:33.644Z,18.20
2019-05-16T04:01:06.448Z,18.28
2019-05-16T04:03:40.985Z,18.24
2019-05-16T04:06:11.939Z,18.37
2019-05-16T04:08:43.847Z,18.37
2019-05-16T04:11:18.566Z,18.50
2019-05-16T04:13:50.797Z,18.47
2019-05-16T04:16:21.724Z,18.55
2019-05-16T04:18:53.306Z,18.61
2019-05-16T04:21:24.936Z,18.65
2019-05-16T04:23:56.354Z,18.71
2019-05-16T04:26:30.793Z,18.78
2019-05-16T04:29:01.223Z,18.79
2019-05-16T04:31:32.555Z,18.77
2019-05-16T04:34:04.009Z,18.96
2019-05-16T04:36:35.718Z,19.05
2019-05-16T04:39:11.663Z,19.07
2019-05-16T04:41:41.287Z,19.08
2019-05-16T04:44:12.706Z,19.05
2019-05-16T04:46:43.971Z,19.16
2019-05-16T04:49:16.353Z,19.23
2019-05-16T04:51:47.864Z,19.26
2019-05-16T04:54:21.545Z,19.33
2019-05-16T04:56:53.088Z,19.40
2019-05-16T04:59:24.461Z,19.46
2019-05-16T05:01:56.014Z,19.46
2019-05-16T05:04:30.288Z,19.55
2019-05-16T05:07:00.835Z,19.60
2019-05-16T05:09:33.348Z,19.70
2019-05-16T05:12:05.089Z,19.75
2019-05-16T05:14:36.581Z,19.84
2019-05-16T05:17:10.507Z,19.90
2019-05-16T05:19:41.532Z,20.03
2019-05-16T05:22:13.207Z,20.17
2019-05-16T05:24:44.632Z,20.32
2019-05-16T05:27:16.154Z,20.39
2019-05-16T05:29:47.460Z,20.48
2019-05-16T05:32:20.053Z,20.58
2019-05-16T05:34:51.678Z,20.66
2019-05-16T05:37:23.121Z,20.84
2019-05-16T05:39:54.573Z,20.89
2019-05-16T05:42:25.998Z,20.97
2019-05-16T05:44:57.477Z,21.09
2019-05-16T05:47:30.735Z,21.15
2019-05-16T05:50:02.140Z,21.25
2019-05-16T05:52:33.621Z,21.44
2019-05-16T05:55:06.791Z,21.60
2019-05-16T05:57:40.362Z,21.69
2019-05-16T06:00:11.686Z,21.77
2019-05-16T06:02:43.227Z,21.88
2019-05-16T06:05:14.735Z,21.92
2019-05-16T06:07:47.091Z,22.03
2019-05-16T06:10:19.894Z,22.11
2019-05-16T06:12:51.302Z,22.22
2019-05-16T06:15:22.734Z,22.32
2019-05-16T06:17:54.076Z,22.50
2019-05-16T06:20:25.612Z,22.57
2019-05-16T06:22:56.987Z,22.68
2019-05-16T06:25:31.440Z,22.72
2019-05-16T06:28:01.456Z,22.80
2019-05-16T06:30:33.108Z,22.88
2019-05-16T06:33:04.515Z,22.95
2019-05-16T06:35:36.928Z,22.98
2019-05-16T06:38:09.969Z,23.03
2019-05-16T06:40:41.495Z,23.12
2019-05-16T06:43:12.793Z,23.23
2019-05-16T06:45:44.188Z,23.25
2019-05-16T06:48:15.442Z,23.47
2019-05-16T06:50:46.921Z,23.50
2019-05-16T06:53:20.978Z,23.58
2019-05-16T06:55:52.571Z,23.66
2019-05-16T06:58:23.908Z,23.73
2019-05-16T07:00:55.287Z,23.78
2019-05-16T07:03:26.724Z,23.96
2019-05-16T07:06:00.347Z,24.12
2019-05-16T07:08:31.357Z,24.32
2019-05-16T07:11:02.780Z,24.46
2019-05-16T07:13:34.162Z,24.53
2019-05-16T07:16:06.641Z,24.69
2019-05-16T07:18:40.103Z,24.77
2019-05-16T07:21:13.441Z,24.91
2019-05-16T07:23:45.090Z,24.94
2019-05-16T07:26:16.633Z,24.92
2019-05-16T07:28:47.945Z,24.91
2019-05-16T07:31:22.273Z,24.88
2019-05-16T07:33:52.546Z,24.89
2019-05-16T07:36:24.081Z,24.84
2019-05-16T07:38:55.451Z,25.06
2019-05-16T07:41:26.910Z,25.17
2019-05-16T07:44:00.733Z,25.31
2019-05-16T07:46:31.731Z,25.51
2019-05-16T07:49:03.053Z,25.45
2019-05-16T07:51:34.449Z,25.52
2019-05-16T07:54:05.908Z,25.56
2019-05-16T07:56:40.458Z,25.71
2019-05-16T07:59:10.601Z,25.68
2019-05-16T08:01:43.375Z,25.41
2019-05-16T08:04:14.892Z,25.20
2019-05-16T08:06:47.152Z,25.23
2019-05-16T08:09:21.153Z,25.09
2019-05-16T08:11:51.841Z,25.04
2019-05-16T08:14:23.262Z,25.25
2019-05-16T08:16:54.652Z,25.40
2019-05-16T08:19:27.444Z,25.38
2019-05-16T08:22:01.241Z,25.53
2019-05-16T08:24:36.048Z,25.56
2019-05-16T08:27:05.417Z,25.47
2019-05-16T08:29:36.912Z,25.46
2019-05-16T08:32:11.459Z,25.61
2019-05-16T08:34:41.476Z,25.63
2019-05-16T08:37:32.845Z,25.62
2019-05-16T08:39:46.070Z,25.76
2019-05-16T08:42:20.603Z,25.87
2019-05-16T08:47:23.562Z,25.71
2019-05-16T08:49:56.012Z,25.73
2019-05-16T08:52:27.411Z,25.56
2019-05-16T08:55:03.350Z,25.63
2019-05-16T08:57:34.010Z,25.89
2019-05-16T09:00:13.590Z,26.10
2019-05-16T09:02:42.434Z,26.00
2019-05-16T09:05:15.248Z,26.12
2019-05-16T09:07:46.606Z,25.89
2019-05-16T09:10:42.043Z,25.80
2019-05-16T09:12:51.341Z,26.11
2019-05-16T09:15:22.922Z,25.95
2019-05-16T09:17:54.248Z,25.89
2019-05-16T09:20:28.073Z,26.00
2019-05-16T09:22:58.864Z,26.18
2019-05-16T09:25:30.417Z,26.36
2019-05-16T09:28:01.887Z,26.31
2019-05-16T09:30:33.254Z,26.22
2019-05-16T09:33:07.058Z,26.37
2019-05-16T09:35:37.727Z,26.21
2019-05-16T09:38:09.225Z,26.31
2019-05-16T09:40:40.637Z,26.50
2019-05-16T09:43:12.057Z,26.56
2019-05-16T09:45:43.464Z,26.58
2019-05-16T09:48:18.467Z,26.55
2019-05-16T09:50:48.657Z,26.76
2019-05-16T09:53:20.347Z,26.75
2019-05-16T09:55:51.700Z,26.64
2019-05-16T09:58:23.114Z,26.64
2019-05-16T10:00:57.483Z,26.67
2019-05-16T10:03:29.273Z,26.69
2019-05-16T10:06:00.653Z,26.65
2019-05-16T10:08:34.197Z,26.52
2019-05-16T10:11:06.327Z,26.66
2019-05-16T10:13:38.139Z,26.61
2019-05-16T10:16:09.621Z,26.88
2019-05-16T10:18:41.955Z,26.84
2019-05-16T10:21:17.789Z,26.90
2019-05-16T10:23:47.066Z,26.64
2019-05-16T10:26:19.548Z,26.78
2019-05-16T10:28:51.071Z,26.70
2019-05-16T10:31:36.555Z,26.82
2019-05-16T10:33:58.123Z,26.90
2019-05-16T10:36:28.701Z,26.97
2019-05-16T10:39:00.172Z,27.02
2019-05-16T10:41:31.710Z,27.06
2019-05-16T10:44:03.212Z,27.19
2019-05-16T10:46:37.741Z,26.98
2019-05-16T10:49:08.671Z,26.98
2019-05-16T10:51:40.146Z,27.13
2019-05-16T10:54:17.233Z,27.22
2019-05-16T10:56:46.727Z,27.20
2019-05-16T11:01:51.952Z,27.09
2019-05-16T11:04:29.196Z,27.28
2019-05-16T11:06:58.605Z,27.37
2019-05-16T11:09:30.020Z,27.39
2019-05-16T11:12:01.404Z,27.34
2019-05-16T11:14:33.003Z,27.28
2019-05-16T11:17:07.254Z,27.19
2019-05-16T11:19:38.059Z,27.45
2019-05-16T11:22:09.585Z,27.60
2019-05-16T11:24:41.085Z,27.60
2019-05-16T11:27:12.720Z,27.56
2019-05-16T11:29:44.173Z,27.46
2019-05-16T11:32:15.663Z,27.60
2019-05-16T11:34:47.986Z,27.63
2019-05-16T11:37:19.656Z,27.72
2019-05-16T11:39:51.086Z,27.72
2019-05-16T11:42:22.850Z,27.71
2019-05-16T11:44:54.329Z,27.63
2019-05-16T11:47:27.190Z,27.63
2019-05-16T11:49:58.721Z,27.29
2019-05-16T11:52:30.557Z,27.42
2019-05-16T11:55:02.258Z,27.42
2019-05-16T11:57:34.011Z,27.44
2019-05-16T12:00:08.570Z,27.47
2019-05-16T12:02:42.623Z,27.70
2019-05-16T12:05:13.255Z,27.74
2019-05-16T12:07:48.179Z,27.63
2019-05-16T12:10:18.037Z,27.68
2019-05-16T12:12:49.762Z,27.77
2019-05-16T12:15:23.922Z,27.79
2019-05-16T12:18:01.798Z,27.80
2019-05-16T12:20:28.554Z,27.76
2019-05-16T12:23:17.345Z,27.76
2019-05-16T12:25:48.562Z,27.72
2019-05-16T12:28:20.110Z,27.87
2019-05-16T12:30:51.458Z,27.96
2019-05-16T12:33:22.914Z,27.79
2019-05-16T12:35:57.351Z,27.61
2019-05-16T12:38:27.890Z,27.61
2019-05-16T12:40:59.338Z,27.83
2019-05-16T12:43:44.803Z,27.84
2019-05-16T12:46:08.187Z,27.85
2019-05-16T12:48:39.622Z,28.04
2019-05-16T12:51:11.064Z,28.19
2019-05-16T12:53:48.225Z,28.10
2019-05-16T12:56:19.684Z,28.10
2019-05-16T12:58:51.123Z,28.12
2019-05-16T13:01:30.624Z,28.13
2019-05-16T13:04:00.411Z,28.21
2019-05-16T13:06:31.832Z,28.16
2019-05-16T13:09:03.678Z,28.22
2019-05-16T13:11:37.540Z,28.24
2019-05-16T13:14:11.239Z,28.40
2019-05-16T13:16:41.566Z,28.17
2019-05-16T13:19:18.303Z,28.26
2019-05-16T13:21:49.981Z,28.18
2019-05-16T13:24:21.422Z,27.90
2019-05-16T13:26:52.963Z,27.91
2019-05-16T13:29:27.333Z,28.04
2019-05-16T13:31:58.008Z,28.07
2019-05-16T13:34:29.580Z,28.01
2019-05-16T13:37:00.971Z,28.01
2019-05-16T13:39:33.445Z,28.11
2019-05-16T13:42:07.741Z,28.11
2019-05-16T13:44:38.370Z,28.20
2019-05-16T13:47:09.951Z,28.22
2019-05-16T13:49:41.380Z,28.28
2019-05-16T13:52:12.843Z,28.09
2019-05-16T13:54:44.400Z,28.08
2019-05-16T13:57:17.298Z,28.01
2019-05-16T13:59:49.049Z,27.86
2019-05-16T14:02:20.524Z,27.76
2019-05-16T14:04:51.932Z,27.78
2019-05-16T14:07:23.337Z,27.84
2019-05-16T14:09:57.724Z,27.77
2019-05-16T14:12:28.279Z,27.49
2019-05-16T14:14:59.737Z,27.49
2019-05-16T14:17:31.226Z,27.60
2019-05-16T14:20:02.991Z,27.60
2019-05-16T14:22:36.038Z,27.43
2019-05-16T14:25:08.952Z,27.64
2019-05-16T14:27:40.414Z,27.56
2019-05-16T14:30:12.125Z,27.65
2019-05-16T14:32:44.458Z,27.70
2019-05-16T14:35:16.080Z,27.85
2019-05-16T14:37:47.864Z,27.85
2019-05-16T14:40:19.271Z,27.63
2019-05-16T14:42:50.754Z,27.63
2019-05-16T14:45:23.142Z,27.72
2019-05-16T14:47:54.556Z,27.93
2019-05-16T14:50:27.546Z,27.93
2019-05-16T14:52:59.287Z,28.19
2019-05-16T14:55:30.724Z,28.56
2019-05-16T14:58:02.125Z,28.92
2019-05-16T15:00:34.514Z,29.13
2019-05-16T15:03:08.315Z,29.02
2019-05-16T15:05:42.597Z,29.06
2019-05-16T15:08:12.458Z,29.19
2019-05-16T15:10:44.111Z,29.41
2019-05-16T15:13:17.482Z,29.47
2019-05-16T15:15:48.854Z,29.75
2019-05-16T15:18:20.316Z,30.32
2019-05-16T15:20:51.815Z,30.60
2019-05-16T15:23:24.195Z,30.28
2019-05-16T15:25:55.725Z,29.67
2019-05-16T15:28:30.265Z,29.11
2019-05-16T15:31:00.198Z,28.63
2019-05-16T15:33:31.692Z,27.81
2019-05-16T15:36:04.701Z,27.54
2019-05-16T15:38:36.545Z,27.37
2019-05-16T15:41:08.773Z,27.19
2019-05-16T15:43:40.415Z,26.84
2019-05-16T15:46:12.124Z,26.85
2019-05-16T15:48:43.920Z,26.80
2019-05-16T15:51:20.518Z,26.54
2019-05-16T15:53:51.738Z,26.54
2019-05-16T15:56:23.238Z,26.41
2019-05-16T15:58:54.575Z,26.37
2019-05-16T16:01:27.629Z,26.26
2019-05-16T16:03:59.377Z,26.24
2019-05-16T16:06:30.838Z,26.23
2019-05-16T16:09:02.488Z,26.22
2019-05-16T16:11:37.457Z,26.13
2019-05-16T16:14:09.975Z,26.02
2019-05-16T16:16:43.010Z,25.97
2019-05-16T16:19:17.303Z,25.91
2019-05-16T16:21:47.672Z,25.89
2019-05-16T16:24:19.470Z,25.89
2019-05-16T16:26:51.026Z,25.81
2019-05-16T16:29:22.450Z,25.75
2019-05-16T16:31:56.813Z,25.68
2019-05-16T16:34:27.985Z,25.63
2019-05-16T16:36:59.455Z,25.56
2019-05-16T16:39:31.032Z,25.45
2019-05-16T16:42:02.537Z,25.46
2019-05-16T16:44:36.397Z,25.42
2019-05-16T16:47:07.348Z,25.31
2019-05-16T16:49:40.536Z,25.27
2019-05-16T16:52:13.823Z,25.19
2019-05-16T16:54:47.446Z,25.08
2019-05-16T16:57:18.474Z,25.07
2019-05-16T16:59:49.915Z,25.00
2019-05-16T17:02:21.274Z,24.96
2019-05-16T17:04:52.677Z,24.90
2019-05-16T17:07:24.050Z,24.85
2019-05-16T17:09:56.361Z,24.82
2019-05-16T17:12:28.031Z,24.77
2019-05-16T17:14:59.465Z,24.71
2019-05-16T17:17:32.584Z,24.62
2019-05-16T17:20:07.315Z,24.63
2019-05-16T17:22:38.530Z,24.61
2019-05-16T17:25:10.797Z,24.59
2019-05-16T17:27:42.249Z,24.49
2019-05-16T17:30:17.061Z,24.39
2019-05-16T17:32:48.987Z,24.37
2019-05-16T17:35:20.951Z,24.35
2019-05-16T17:37:52.493Z,24.29
2019-05-16T17:40:24.021Z,24.20
2019-05-16T17:42:56.843Z,24.21
2019-05-16T17:45:28.488Z,24.17
2019-05-16T17:48:00.067Z,24.09
2019-05-16T17:50:31.553Z,24.07
2019-05-16T17:53:03.113Z,24.05
2019-05-16T17:55:36.940Z,24.04
2019-05-16T17:58:09.079Z,24.01
2019-05-16T18:00:40.702Z,24.01
2019-05-16T18:03:12.439Z,23.99
2019-05-16T18:05:44.015Z,23.92
2019-05-16T18:08:15.571Z,23.93
2019-05-16T18:10:47.386Z,23.94
2019-05-16T18:13:18.949Z,23.94
2019-05-16T18:15:50.416Z,23.88
2019-05-16T18:18:23.445Z,23.88
2019-05-16T18:21:01.450Z,23.82
2019-05-16T18:23:28.160Z,23.73
2019-05-16T18:26:02.103Z,23.69
2019-05-16T18:28:32.878Z,23.66
2019-05-16T18:31:06.886Z,23.61
2019-05-16T18:33:38.404Z,23.50
2019-05-16T18:36:09.945Z,23.44
2019-05-16T18:38:41.384Z,23.36
2019-05-16T18:41:12.867Z,23.32
2019-05-16T18:43:44.420Z,23.33
2019-05-16T18:46:16.335Z,23.29
2019-05-16T18:48:47.937Z,23.27
2019-05-16T18:51:19.368Z,23.19
2019-05-16T18:53:50.801Z,23.18
2019-05-16T18:56:22.222Z,23.13
2019-05-16T18:58:53.575Z,23.01
2019-05-16T19:01:26.867Z,22.95
2019-05-16T19:04:00.477Z,22.89
2019-05-16T19:06:31.921Z,22.86
2019-05-16T19:09:07.129Z,22.77
2019-05-16T19:11:38.329Z,22.65
2019-05-16T19:14:10.199Z,22.59
2019-05-16T19:16:41.648Z,22.55
2019-05-16T19:19:12.917Z,22.48
2019-05-16T19:21:44.450Z,22.49
2019-05-16T19:24:16.445Z,22.44
2019-05-16T19:26:48.296Z,22.40
2019-05-16T19:29:19.892Z,22.33
2019-05-16T19:31:51.420Z,22.28
2019-05-16T19:34:23.899Z,22.33
2019-05-16T19:36:58.062Z,22.23
2019-05-16T19:39:33.448Z,22.18
2019-05-16T19:42:06.508Z,22.18
2019-05-16T19:44:38.653Z,22.17
2019-05-16T19:47:10.034Z,22.08
2019-05-16T19:49:41.416Z,21.94
2019-05-16T19:52:13.035Z,21.86
2019-05-16T19:54:46.945Z,21.75
2019-05-16T19:57:17.752Z,21.64
2019-05-16T19:59:49.496Z,21.58
2019-05-16T20:02:21.074Z,21.32
2019-05-16T20:04:53.643Z,21.25
2019-05-16T20:07:26.404Z,21.27
2019-05-16T20:09:57.830Z,21.30
2019-05-16T20:12:29.232Z,21.29
2019-05-16T20:15:07.943Z,21.30
2019-05-16T20:17:36.622Z,21.29
2019-05-16T20:20:09.470Z,21.24
2019-05-16T20:22:41.085Z,21.17
2019-05-16T20:25:13.486Z,21.19
2019-05-16T20:27:47.021Z,21.15
2019-05-16T20:30:19.079Z,21.09
2019-05-16T20:32:50.884Z,21.09
2019-05-16T20:35:22.619Z,21.07
2019-05-16T20:37:54.568Z,21.08
2019-05-16T20:40:26.606Z,21.12
2019-05-16T20:42:59.563Z,21.07
2019-05-16T20:45:31.188Z,21.09
2019-05-16T20:48:10.824Z,21.01
2019-05-16T20:50:35.807Z,21.00
2019-05-16T20:53:07.484Z,20.93
2019-05-16T20:55:39.006Z,20.92
2019-05-16T20:58:11.436Z,20.88
2019-05-16T21:00:43.041Z,20.93
2019-05-16T21:03:16.312Z,20.89
2019-05-16T21:05:48.243Z,20.90
2019-05-16T21:08:20.284Z,20.88
2019-05-16T21:10:51.705Z,20.82
2019-05-16T21:13:23.131Z,20.80
2019-05-16T21:15:54.621Z,20.81
2019-05-16T21:18:25.993Z,20.80
2019-05-16T21:20:57.599Z,20.78
2019-05-16T21:23:29.175Z,20.80
2019-05-16T21:26:00.734Z,20.76
2019-05-16T21:28:32.229Z,20.70
2019-05-16T21:31:03.856Z,20.64
2019-05-16T21:33:36.556Z,20.67
2019-05-16T21:36:08.204Z,20.62
2019-05-16T21:38:39.747Z,20.61
2019-05-16T21:41:12.276Z,20.57
2019-05-16T21:43:43.698Z,20.56
2019-05-16T21:46:17.201Z,20.52
2019-05-16T21:48:48.671Z,20.48
2019-05-16T21:51:19.995Z,20.47
2019-05-16T21:53:51.555Z,20.41
2019-05-16T21:56:23.187Z,20.46
2019-05-16T21:58:54.692Z,20.39
2019-05-16T22:01:27.260Z,20.41
2019-05-16T22:03:58.844Z,20.33
2019-05-16T22:06:30.660Z,20.32
2019-05-16T22:09:02.114Z,20.31
2019-05-16T22:11:37.095Z,20.33
2019-05-16T22:14:08.414Z,20.31
2019-05-16T22:16:41.090Z,20.26
2019-05-16T22:19:12.639Z,20.23
2019-05-16T22:21:44.247Z,20.21
2019-05-16T22:24:17.257Z,20.13
2019-05-16T22:26:48.883Z,20.08
2019-05-16T22:29:20.418Z,20.04
2019-05-16T22:31:51.895Z,20.01
2019-05-16T22:34:23.564Z,19.97
2019-05-16T22:36:57.242Z,19.92
2019-05-16T22:39:28.528Z,19.87
2019-05-16T22:42:00.210Z,19.85
2019-05-16T22:44:31.665Z,19.86
2019-05-16T22:47:03.240Z,19.85
2019-05-16T22:49:36.815Z,19.79
2019-05-16T22:52:08.103Z,19.74
2019-05-16T22:54:39.582Z,19.78
2019-05-16T22:57:11.019Z,19.75
2019-05-16T22:59:42.304Z,19.68
2019-05-16T23:02:13.721Z,19.67
2019-05-16T23:04:47.321Z,19.67
2019-05-16T23:07:18.465Z,19.61
2019-05-16T23:09:49.849Z,19.62
2019-05-16T23:12:21.277Z,19.54
2019-05-16T23:14:52.749Z,19.55
2019-05-16T23:17:26.574Z,19.50
2019-05-16T23:19:57.318Z,19.47
2019-05-16T23:22:28.768Z,19.41
2019-05-16T23:25:00.116Z,19.41
2019-05-16T23:27:31.445Z,19.35
2019-05-16T23:30:02.914Z,19.26
2019-05-16T23:32:36.530Z,19.24
2019-05-16T23:35:07.866Z,19.37
2019-05-16T23:37:39.469Z,19.29
2019-05-16T23:40:11.228Z,19.26
2019-05-16T23:42:42.993Z,19.25
2019-05-16T23:45:16.873Z,19.21
2019-05-16T23:47:47.758Z,19.17
2019-05-16T23:50:20.791Z,19.21
2019-05-16T23:52:52.116Z,19.07
2019-05-16T23:55:23.486Z,19.09
2019-05-16T23:57:57.120Z,19.05
